createdAt,value
2022-12-25T00:01:57.987Z,5.82
2022-12-25T00:04:57.988Z,5.82
2022-12-25T00:07:57.988Z,5.78
2022-12-25T00:10:58.012Z,5.78
2022-12-25T00:13:58.008Z,5.78
2022-12-25T00:16:58.042Z,5.75
2022-12-25T00:19:58.037Z,5.75
2022-12-25T00:22:58.031Z,5.75
2022-12-25T00:25:58.048Z,5.75
2022-12-25T00:28:58.046Z,5.75
2022-12-25T00:31:58.165Z,5.72
2022-12-25T00:34:58.086Z,5.72
2022-12-25T00:37:58.054Z,5.69
2022-12-25T00:40:58.071Z,5.65
2022-12-25T00:43:58.054Z,5.61
2022-12-25T00:46:58.130Z,5.61
2022-12-25T00:49:58.077Z,5.53
2022-12-25T00:52:58.104Z,5.53
2022-12-25T00:55:58.095Z,5.54
2022-12-25T00:58:58.094Z,5.53
2022-12-25T01:01:58.144Z,5.54
2022-12-25T01:04:58.090Z,5.54
2022-12-25T01:07:58.089Z,5.53
2022-12-25T01:10:58.122Z,5.49
2022-12-25T01:13:58.090Z,5.45
2022-12-25T01:16:58.168Z,5.45
2022-12-25T01:19:58.099Z,5.42
2022-12-25T01:22:58.092Z,5.42
2022-12-25T01:25:58.107Z,5.42
2022-12-25T01:28:58.125Z,5.47
2022-12-25T01:31:58.101Z,5.47
2022-12-25T01:34:58.093Z,5.47
2022-12-25T01:37:58.102Z,5.48
2022-12-25T01:40:58.109Z,5.48
2022-12-25T01:43:58.104Z,5.44
2022-12-25T01:46:58.251Z,5.4
2022-12-25T01:49:58.097Z,5.4
2022-12-25T01:52:58.100Z,5.39
2022-12-25T01:55:58.139Z,5.36
2022-12-25T01:58:58.104Z,5.32
2022-12-25T02:01:58.266Z,5.32
2022-12-25T02:04:58.132Z,5.36
2022-12-25T02:07:58.121Z,5.36
2022-12-25T02:10:58.119Z,5.36
2022-12-25T02:13:58.118Z,5.37
2022-12-25T02:16:58.931Z,5.33
2022-12-25T02:19:58.124Z,5.3
2022-12-25T02:22:58.152Z,5.26
2022-12-25T02:25:58.141Z,5.25
2022-12-25T02:28:58.145Z,5.25
2022-12-25T02:31:58.172Z,5.21
2022-12-25T02:34:58.132Z,5.18
2022-12-25T02:37:58.134Z,5.18
2022-12-25T02:40:58.172Z,5.18
2022-12-25T02:43:58.137Z,5.18
2022-12-25T02:46:58.148Z,5.18
2022-12-25T02:49:58.146Z,5.14
2022-12-25T02:52:58.143Z,5.11
2022-12-25T02:55:58.155Z,5.11
2022-12-25T02:58:58.211Z,5.11
2022-12-25T03:01:58.221Z,5.12
2022-12-25T03:04:58.164Z,5.16
2022-12-25T03:07:58.149Z,5.19
2022-12-25T03:10:58.187Z,5.16
2022-12-25T03:13:58.153Z,5.1
2022-12-25T03:16:58.376Z,5.06
2022-12-25T03:19:58.258Z,5.06
2022-12-25T03:22:58.153Z,5.06
2022-12-25T03:25:58.167Z,5.02
2022-12-25T03:28:58.154Z,5.06
2022-12-25T03:31:58.265Z,5.07
2022-12-25T03:34:58.182Z,5.1
2022-12-25T03:37:58.158Z,5.15
2022-12-25T03:40:58.169Z,5.23
2022-12-25T03:43:58.187Z,5.31
2022-12-25T03:46:58.260Z,5.38
2022-12-25T03:49:58.161Z,5.34
2022-12-25T03:52:58.193Z,5.31
2022-12-25T03:55:58.276Z,5.32
2022-12-25T03:58:58.166Z,5.37
2022-12-25T04:01:58.307Z,5.37
2022-12-25T04:04:58.192Z,5.41
2022-12-25T04:07:58.210Z,5.45
2022-12-25T04:10:58.217Z,5.45
2022-12-25T04:13:58.203Z,5.46
2022-12-25T04:16:58.171Z,5.46
2022-12-25T04:19:58.173Z,5.5
2022-12-25T04:22:58.177Z,5.54
2022-12-25T04:25:58.190Z,5.54
2022-12-25T04:28:58.207Z,5.54
2022-12-25T04:31:58.180Z,5.58
2022-12-25T04:34:58.188Z,5.58
2022-12-25T04:37:58.191Z,5.62
2022-12-25T04:40:58.202Z,5.62
2022-12-25T04:43:58.194Z,5.63
2022-12-25T04:46:58.210Z,5.59
2022-12-25T04:49:58.195Z,5.55
2022-12-25T04:52:58.191Z,5.52
2022-12-25T04:55:58.208Z,5.48
2022-12-25T04:58:58.192Z,5.37
2022-12-25T05:01:58.310Z,5.3
2022-12-25T05:04:58.223Z,5.26
2022-12-25T05:07:58.204Z,5.23
2022-12-25T05:10:58.207Z,5.22
2022-12-25T05:13:58.204Z,5.26
2022-12-25T05:16:58.204Z,5.25
2022-12-25T05:19:58.207Z,5.28
2022-12-25T05:22:58.227Z,5.32
2022-12-25T05:25:58.220Z,5.35
2022-12-25T05:28:58.209Z,5.35
2022-12-25T05:31:58.213Z,5.39
2022-12-25T05:34:58.215Z,5.43
2022-12-25T05:37:58.215Z,5.47
2022-12-25T05:40:58.250Z,5.5
2022-12-25T05:43:58.234Z,5.51
2022-12-25T05:46:58.301Z,5.51
2022-12-25T05:49:58.218Z,5.52
2022-12-25T05:53:01.489Z,5.55
2022-12-25T05:55:58.243Z,5.55
2022-12-25T05:58:58.244Z,5.59
2022-12-25T06:01:58.298Z,5.63
2022-12-25T06:04:58.222Z,5.67
2022-12-25T06:07:58.228Z,5.68
2022-12-25T06:10:58.240Z,5.68
2022-12-25T06:13:58.240Z,5.68
2022-12-25T06:16:58.291Z,5.68
2022-12-25T06:19:58.234Z,5.72
2022-12-25T06:22:58.242Z,5.68
2022-12-25T06:25:58.247Z,5.68
2022-12-25T06:28:58.241Z,5.65
2022-12-25T06:31:58.285Z,5.61
2022-12-25T06:34:58.278Z,5.65
2022-12-25T06:37:58.249Z,5.65
2022-12-25T06:40:58.259Z,5.61
2022-12-25T06:43:58.252Z,5.61
2022-12-25T06:46:58.254Z,5.57
2022-12-25T06:49:58.268Z,5.57
2022-12-25T06:52:58.279Z,5.57
2022-12-25T06:55:58.268Z,5.57
2022-12-25T06:58:58.255Z,5.57
2022-12-25T07:01:58.556Z,5.6
2022-12-25T07:04:58.261Z,5.61
2022-12-25T07:07:58.270Z,5.6
2022-12-25T07:10:58.300Z,5.6
2022-12-25T07:13:58.270Z,5.6
2022-12-25T07:16:58.359Z,5.6
2022-12-25T07:19:58.268Z,5.6
2022-12-25T07:22:58.276Z,5.64
2022-12-25T07:25:58.314Z,5.64
2022-12-25T07:28:58.321Z,5.6
2022-12-25T07:31:58.381Z,5.6
2022-12-25T07:34:58.284Z,5.6
2022-12-25T07:37:58.315Z,5.6
2022-12-25T07:40:58.304Z,5.6
2022-12-25T07:43:58.313Z,5.57
2022-12-25T07:46:58.318Z,5.57
2022-12-25T07:49:58.284Z,5.53
2022-12-25T07:52:58.289Z,5.49
2022-12-25T07:55:58.297Z,5.49
2022-12-25T07:58:58.351Z,5.46
2022-12-25T08:01:58.510Z,5.46
2022-12-25T08:04:58.309Z,5.42
2022-12-25T08:07:58.457Z,5.42
2022-12-25T08:10:58.303Z,5.46
2022-12-25T08:13:58.315Z,5.46
2022-12-25T08:16:58.352Z,5.54
2022-12-25T08:19:58.324Z,5.58
2022-12-25T08:22:58.324Z,5.65
2022-12-25T08:26:04.148Z,5.73
2022-12-25T08:28:58.301Z,5.85
2022-12-25T08:31:58.308Z,6.01
2022-12-25T08:34:58.304Z,6.21
2022-12-25T08:37:58.311Z,6.38
2022-12-25T08:40:58.357Z,6.51
2022-12-25T08:43:58.315Z,6.61
2022-12-25T08:46:58.313Z,6.64
2022-12-25T08:49:58.324Z,6.69
2022-12-25T08:52:58.346Z,6.73
2022-12-25T08:55:58.356Z,6.87
2022-12-25T08:58:58.345Z,6.96
2022-12-25T09:01:58.482Z,7
2022-12-25T09:04:58.328Z,7.05
2022-12-25T09:07:58.330Z,7.05
2022-12-25T09:10:58.344Z,7.04
2022-12-25T09:13:58.356Z,7.09
2022-12-25T09:16:58.366Z,7.09
2022-12-25T09:19:58.355Z,7.09
2022-12-25T09:22:58.409Z,7.09
2022-12-25T09:25:58.357Z,7.04
2022-12-25T09:28:58.351Z,7.04
2022-12-25T09:31:58.361Z,7.04
2022-12-25T09:34:58.377Z,7.09
2022-12-25T09:37:58.361Z,7.09
2022-12-25T09:40:58.371Z,7.09
2022-12-25T09:43:58.365Z,7.09
2022-12-25T09:46:58.428Z,7.13
2022-12-25T09:49:58.367Z,7.13
2022-12-25T09:52:58.471Z,7.17
2022-12-25T09:55:58.395Z,7.22
2022-12-25T09:58:58.382Z,7.22
2022-12-25T10:01:58.490Z,7.27
2022-12-25T10:04:58.399Z,7.32
2022-12-25T10:07:58.391Z,7.32
2022-12-25T10:10:58.442Z,7.36
2022-12-25T10:13:58.406Z,7.4
2022-12-25T10:16:58.411Z,7.4
2022-12-25T10:19:58.415Z,7.38
2022-12-25T10:22:58.406Z,7.43
2022-12-25T10:25:58.425Z,7.43
2022-12-25T10:28:58.442Z,7.47
2022-12-25T10:31:58.426Z,7.52
2022-12-25T10:34:58.422Z,7.51
2022-12-25T10:37:58.429Z,7.51
2022-12-25T10:40:58.440Z,7.56
2022-12-25T10:43:58.444Z,7.56
2022-12-25T10:46:58.531Z,7.61
2022-12-25T10:49:58.448Z,7.6
2022-12-25T10:52:58.440Z,7.65
2022-12-25T10:55:58.470Z,7.64
2022-12-25T10:58:58.446Z,7.69
2022-12-25T11:01:58.525Z,7.74
2022-12-25T11:04:58.479Z,7.73
2022-12-25T11:07:58.460Z,7.77
2022-12-25T11:10:58.471Z,7.77
2022-12-25T11:13:58.464Z,7.88
2022-12-25T11:16:58.473Z,7.92
2022-12-25T11:19:58.468Z,7.97
2022-12-25T11:22:58.496Z,8
2022-12-25T11:25:58.486Z,8
2022-12-25T11:28:58.479Z,7.99
2022-12-25T11:31:58.482Z,7.99
2022-12-25T11:34:58.494Z,7.97
2022-12-25T11:37:58.488Z,7.96
2022-12-25T11:40:58.533Z,7.9
2022-12-25T11:43:58.495Z,7.9
2022-12-25T11:46:58.568Z,7.9
2022-12-25T11:50:00.654Z,7.85
2022-12-25T11:52:58.505Z,7.89
2022-12-25T11:55:58.523Z,7.89
2022-12-25T11:58:58.536Z,7.89
2022-12-25T12:01:58.613Z,7.94
2022-12-25T12:04:58.512Z,8.04
2022-12-25T12:07:58.511Z,8.09
2022-12-25T12:10:58.541Z,8.14
2022-12-25T12:13:58.514Z,8.18
2022-12-25T12:16:58.624Z,8.22
2022-12-25T12:19:58.523Z,8.21
2022-12-25T12:22:58.523Z,8.19
2022-12-25T12:25:58.537Z,8.22
2022-12-25T12:28:58.527Z,8.21
2022-12-25T12:31:58.625Z,8.19
2022-12-25T12:34:58.577Z,8.17
2022-12-25T12:37:58.541Z,8.14
2022-12-25T12:40:58.573Z,8.14
2022-12-25T12:43:58.559Z,8.13
2022-12-25T12:46:58.554Z,8.13
2022-12-25T12:49:58.556Z,8.11
2022-12-25T12:52:58.582Z,8.05
2022-12-25T12:55:58.589Z,8.06
2022-12-25T12:58:58.568Z,8.01
2022-12-25T13:01:58.725Z,8.02
2022-12-25T13:04:58.587Z,8.02
2022-12-25T13:07:58.580Z,7.97
2022-12-25T13:10:58.619Z,7.98
2022-12-25T13:13:58.591Z,7.98
2022-12-25T13:16:58.647Z,7.93
2022-12-25T13:19:58.604Z,7.94
2022-12-25T13:22:58.599Z,7.94
2022-12-25T13:25:58.617Z,7.95
2022-12-25T13:28:58.644Z,7.95
2022-12-25T13:31:58.717Z,7.95
2022-12-25T13:34:58.618Z,8
2022-12-25T13:37:58.627Z,7.94
2022-12-25T13:40:58.649Z,7.94
2022-12-25T13:43:58.637Z,7.94
2022-12-25T13:46:58.669Z,7.94
2022-12-25T13:49:58.649Z,7.89
2022-12-25T13:52:58.651Z,7.9
2022-12-25T13:55:58.668Z,7.86
2022-12-25T13:58:58.661Z,7.87
2022-12-25T14:01:58.835Z,7.88
2022-12-25T14:04:58.700Z,7.83
2022-12-25T14:07:58.693Z,7.84
2022-12-25T14:10:58.697Z,7.86
2022-12-25T14:13:58.692Z,7.87
2022-12-25T14:16:58.769Z,7.82
2022-12-25T14:20:02.351Z,7.83
2022-12-25T14:22:58.733Z,7.84
2022-12-25T14:25:58.724Z,7.85
2022-12-25T14:28:58.717Z,7.86
2022-12-25T14:31:58.724Z,7.86
2022-12-25T14:34:58.725Z,7.86
2022-12-25T14:37:58.729Z,7.87
2022-12-25T14:40:58.773Z,7.82
2022-12-25T14:43:58.741Z,7.83
2022-12-25T14:46:58.745Z,7.84
2022-12-25T14:49:58.758Z,7.84
2022-12-25T14:52:58.762Z,7.85
2022-12-25T14:55:58.790Z,7.85
2022-12-25T14:58:58.793Z,7.85
2022-12-25T15:01:59.000Z,7.86
2022-12-25T15:04:58.786Z,7.86
2022-12-25T15:07:58.805Z,7.87
2022-12-25T15:11:01.438Z,7.88
2022-12-25T15:13:58.801Z,7.89
2022-12-25T15:16:58.868Z,7.89
2022-12-25T15:19:58.821Z,7.89
2022-12-25T15:23:20.183Z,7.89
2022-12-25T15:25:58.841Z,7.89
2022-12-25T15:28:58.831Z,7.9
2022-12-25T15:31:58.844Z,7.95
2022-12-25T15:34:58.874Z,7.9
2022-12-25T15:37:58.859Z,7.91
2022-12-25T15:40:58.867Z,7.91
2022-12-25T15:43:58.867Z,7.96
2022-12-25T15:46:58.871Z,7.96
2022-12-25T15:49:58.885Z,7.97
2022-12-25T15:52:58.911Z,7.97
2022-12-25T15:55:58.912Z,7.97
2022-12-25T15:58:58.910Z,7.97
2022-12-25T16:01:59.077Z,7.98
2022-12-25T16:04:58.917Z,7.97
2022-12-25T16:07:58.926Z,7.98
2022-12-25T16:10:58.970Z,7.98
2022-12-25T16:13:58.951Z,7.98
2022-12-25T16:16:58.956Z,7.98
2022-12-25T16:19:58.959Z,7.93
2022-12-25T16:22:58.959Z,7.98
2022-12-25T16:25:58.973Z,7.93
2022-12-25T16:29:02.353Z,7.99
2022-12-25T16:31:58.994Z,7.99
2022-12-25T16:34:58.995Z,7.99
2022-12-25T16:37:59.001Z,7.99
2022-12-25T16:40:59.050Z,7.99
2022-12-25T16:43:59.026Z,7.99
2022-12-25T16:46:59.157Z,7.99
2022-12-25T16:49:59.105Z,8.05
2022-12-25T16:52:59.048Z,8.05
2022-12-25T16:55:59.085Z,8.05
2022-12-25T16:58:59.060Z,8.05
2022-12-25T17:01:59.225Z,8.05
2022-12-25T17:04:59.108Z,8.05
2022-12-25T17:07:59.089Z,8.05
2022-12-25T17:10:59.109Z,8.05
2022-12-25T17:13:59.102Z,8.05
2022-12-25T17:16:59.111Z,8.05
2022-12-25T17:19:59.125Z,8.05
2022-12-25T17:22:59.167Z,8.05
2022-12-25T17:25:59.145Z,8.05
2022-12-25T17:28:59.153Z,8.06
2022-12-25T17:31:59.261Z,8.05
2022-12-25T17:34:59.193Z,8.06
2022-12-25T17:37:59.181Z,8.06
2022-12-25T17:40:59.221Z,8.06
2022-12-25T17:43:59.207Z,8.06
2022-12-25T17:46:59.295Z,8.01
2022-12-25T17:49:59.215Z,8.06
2022-12-25T17:52:59.218Z,8.06
2022-12-25T17:55:59.242Z,8.06
2022-12-25T17:58:59.269Z,8.06
2022-12-25T18:01:59.406Z,8.06
2022-12-25T18:04:59.267Z,8.06
2022-12-25T18:07:59.270Z,8.06
2022-12-25T18:10:59.293Z,8.07
2022-12-25T18:13:59.291Z,8.07
2022-12-25T18:16:59.335Z,8.07
2022-12-25T18:19:59.309Z,8.07
2022-12-25T18:22:59.314Z,8.07
2022-12-25T18:25:59.340Z,8.07
2022-12-25T18:28:59.345Z,8.07
2022-12-25T18:31:59.453Z,8.07
2022-12-25T18:34:59.391Z,8.12
2022-12-25T18:37:59.377Z,8.13
2022-12-25T18:40:59.427Z,8.12
2022-12-25T18:43:59.395Z,8.12
2022-12-25T18:46:59.414Z,8.12
2022-12-25T18:49:59.454Z,8.12
2022-12-25T18:52:59.452Z,8.12
2022-12-25T18:55:59.446Z,8.13
2022-12-25T18:58:59.452Z,8.12
2022-12-25T19:01:59.545Z,8.13
2022-12-25T19:04:59.481Z,8.12
2022-12-25T19:07:59.490Z,8.13
2022-12-25T19:10:59.585Z,8.13
2022-12-25T19:13:59.526Z,8.13
2022-12-25T19:16:59.534Z,8.12
2022-12-25T19:19:59.548Z,8.13
2022-12-25T19:22:59.560Z,8.07
2022-12-25T19:25:59.569Z,8.13
2022-12-25T19:28:59.606Z,8.13
2022-12-25T19:31:59.646Z,8.13
2022-12-25T19:34:59.614Z,8.13
2022-12-25T19:37:59.622Z,8.13
2022-12-25T19:40:59.650Z,8.18
2022-12-25T19:43:59.647Z,8.18
2022-12-25T19:46:59.682Z,8.24
2022-12-25T19:50:02.806Z,8.24
2022-12-25T19:52:59.684Z,8.3
2022-12-25T19:55:59.711Z,8.3
2022-12-25T19:58:59.717Z,8.3
2022-12-25T20:01:59.931Z,8.35
2022-12-25T20:04:59.755Z,8.41
2022-12-25T20:07:59.758Z,8.41
2022-12-25T20:10:59.777Z,8.4
2022-12-25T20:13:59.787Z,8.4
2022-12-25T20:16:59.908Z,8.41
2022-12-25T20:19:59.814Z,8.45
2022-12-25T20:22:59.846Z,8.45
2022-12-25T20:25:59.852Z,8.45
2022-12-25T20:28:59.848Z,8.51
2022-12-25T20:31:59.888Z,8.5
2022-12-25T20:34:59.867Z,8.55
2022-12-25T20:37:59.871Z,8.55
2022-12-25T20:41:25.508Z,8.55
2022-12-25T20:44:00.073Z,8.55
2022-12-25T20:46:59.892Z,8.61
2022-12-25T20:49:59.901Z,8.66
2022-12-25T20:52:59.908Z,8.72
2022-12-25T20:55:59.912Z,8.84
2022-12-25T20:58:59.964Z,8.94
2022-12-25T21:02:00.081Z,8.99
2022-12-25T21:04:59.929Z,9.09
2022-12-25T21:07:59.930Z,9.07
2022-12-25T21:10:59.951Z,9.16
2022-12-25T21:13:59.941Z,9.15
2022-12-25T21:17:00.033Z,9.18
2022-12-25T21:19:59.959Z,9.16
2022-12-25T21:22:59.979Z,9.13
2022-12-25T21:25:59.973Z,9.17
2022-12-25T21:28:59.977Z,9.12
2022-12-25T21:31:59.983Z,9.11
2022-12-25T21:34:59.996Z,9.13
2022-12-25T21:37:59.983Z,9.18
2022-12-25T21:40:59.996Z,9.16
2022-12-25T21:43:59.992Z,9.14
2022-12-25T21:47:00.012Z,9.19
2022-12-25T21:50:00.006Z,9.18
2022-12-25T21:53:00.032Z,9.17
2022-12-25T21:56:00.030Z,9.18
2022-12-25T21:59:00.018Z,9.18
2022-12-25T22:02:00.110Z,9.23
2022-12-25T22:05:00.026Z,9.24
2022-12-25T22:08:00.032Z,9.23
2022-12-25T22:11:00.097Z,9.24
2022-12-25T22:14:00.038Z,9.24
2022-12-25T22:17:00.043Z,9.25
2022-12-25T22:20:00.053Z,9.25
2022-12-25T22:23:00.051Z,9.25
2022-12-25T22:26:00.071Z,9.24
2022-12-25T22:29:00.110Z,9.22
2022-12-25T22:32:00.081Z,9.28
2022-12-25T22:35:00.095Z,9.24
2022-12-25T22:38:00.138Z,9.24
2022-12-25T22:41:00.128Z,9.22
2022-12-25T22:44:16.850Z,9.26
2022-12-25T22:47:00.121Z,9.24
2022-12-25T22:50:00.121Z,9.23
2022-12-25T22:53:00.156Z,9.23
2022-12-25T22:56:00.105Z,9.23
2022-12-25T22:59:00.121Z,9.23
2022-12-25T23:02:00.253Z,9.28
2022-12-25T23:05:00.236Z,9.27
2022-12-25T23:08:00.123Z,9.25
2022-12-25T23:11:00.133Z,9.26
2022-12-25T23:14:00.133Z,9.27
2022-12-25T23:17:00.122Z,9.28
2022-12-25T23:20:00.209Z,9.27
2022-12-25T23:23:00.161Z,9.25
2022-12-25T23:26:00.215Z,9.27
2022-12-25T23:29:00.207Z,9.28
2022-12-25T23:32:00.163Z,9.29
2022-12-25T23:35:00.184Z,9.29
2022-12-25T23:38:00.160Z,9.29
2022-12-25T23:41:00.203Z,9.3
2022-12-25T23:44:00.161Z,9.31
2022-12-25T23:47:00.219Z,9.32
2022-12-25T23:50:00.295Z,9.32
2022-12-25T23:53:00.183Z,9.31
2022-12-25T23:56:00.226Z,9.36
2022-12-25T23:59:00.211Z,9.3
